Time;durP1;ratioP1;P1;durP2;ratioP2;P2;SDS_P1;SDS_P2;PMS_P1;PMS_P2;Temp;Humidity;BMP_temperature;BMP_pressure;BME280_temperature;BME280_humidity;BME280_pressure;Samples;Min_cycle;Max_cycle;Signal;HPM_P1;HPM_P2
2021/06/14 00:00:12;;;;;;;12.87;6.10;;;;;;;11.87;81.11;102139.09;5005286;28;20451;-74
2021/06/14 00:02:39;;;;;;;10.13;6.43;;;;;;;11.82;81.11;102135.94;4989699;28;20467;-74
2021/06/14 00:05:07;;;;;;;14.65;6.72;;;;;;;11.80;81.63;102140.59;5005046;28;20030;-74
2021/06/14 00:07:32;;;;;;;13.98;6.15;;;;;;;11.76;81.53;102125.78;4988196;28;20046;-74
2021/06/14 00:09:58;;;;;;;11.83;6.60;;;;;;;11.67;81.95;102130.13;4989576;28;20042;-74
2021/06/14 00:12:23;;;;;;;17.03;6.93;;;;;;;11.61;81.86;102130.66;4989621;28;20026;-74
2021/06/14 00:14:50;;;;;;;14.20;7.37;;;;;;;11.62;81.54;102135.03;4988549;28;20519;-74
2021/06/14 00:17:16;;;;;;;12.70;5.85;;;;;;;11.56;81.70;102132.91;4971887;28;20048;-74
2021/06/14 00:19:42;;;;;;;13.27;6.93;;;;;;;11.51;81.89;102124.44;4988408;28;20038;-74
2021/06/14 00:22:08;;;;;;;12.45;5.65;;;;;;;11.47;82.09;102121.19;4989339;28;20100;-74
2021/06/14 00:24:33;;;;;;;15.23;7.10;;;;;;;11.47;82.22;102125.69;4989392;28;20099;-74
2021/06/14 00:26:59;;;;;;;19.07;8.57;;;;;;;11.44;82.22;102115.25;4988261;28;20074;-74
2021/06/14 00:29:24;;;;;;;9.17;4.97;;;;;;;11.40;82.25;102115.53;5004749;28;20034;-74
2021/06/14 00:31:49;;;;;;;13.60;6.60;;;;;;;11.38;82.79;102116.66;4989403;28;20073;-74
2021/06/14 00:34:15;;;;;;;12.33;6.30;;;;;;;11.31;82.75;102111.00;4988216;28;20045;-74
2021/06/14 00:36:40;;;;;;;13.53;7.67;;;;;;;11.30;83.29;102109.28;4988917;28;20045;-74
2021/06/14 00:39:05;;;;;;;14.83;7.80;;;;;;;11.26;82.92;102105.22;5004569;28;20049;-74
2021/06/14 00:41:31;;;;;;;13.70;6.57;;;;;;;11.22;83.09;102103.78;4988122;28;20458;-74
2021/06/14 00:43:57;;;;;;;17.95;7.88;;;;;;;11.20;82.88;102097.72;4988102;28;20046;-74
2021/06/14 00:46:22;;;;;;;9.73;6.03;;;;;;;11.15;82.54;102105.28;5004242;28;20038;-74
2021/06/14 00:48:48;;;;;;;11.30;6.03;;;;;;;11.14;82.87;102096.44;4989162;28;20056;-74
2021/06/14 00:51:15;;;;;;;14.33;5.93;;;;;;;11.14;82.51;102095.56;4988965;28;20462;-74
2021/06/14 00:53:42;;;;;;;13.52;7.28;;;;;;;11.10;82.61;102099.50;4988078;28;20034;-74
2021/06/14 00:56:13;;;;;;;15.77;7.32;;;;;;;11.05;82.71;102104.38;4988766;28;20054;-74
2021/06/14 00:58:42;;;;;;;17.90;6.90;;;;;;;11.08;82.88;102104.13;4988116;28;20584;-74
2021/06/14 01:01:08;;;;;;;11.18;6.40;;;;;;;11.04;82.72;102100.84;4988861;28;20031;-74
2021/06/14 01:03:35;;;;;;;13.65;7.35;;;;;;;10.98;82.84;102099.56;4987870;28;20039;-74
2021/06/14 01:06:04;;;;;;;12.52;6.50;;;;;;;10.96;83.37;102106.88;4987512;28;20042;-74
2021/06/14 01:08:33;;;;;;;12.90;6.70;;;;;;;10.94;83.19;102097.31;4987869;28;20180;-74
2021/06/14 01:11:12;;;;;;;11.38;6.53;;;;;;;10.93;83.54;102107.16;4987869;28;20041;-74
2021/06/14 01:13:50;;;;;;;15.38;6.55;;;;;;;10.89;83.63;102103.03;4987776;28;20095;-74
2021/06/14 01:16:22;;;;;;;12.50;6.22;;;;;;;10.87;83.22;102099.66;4988327;28;20041;-74
2021/06/14 01:19:21;;;;;;;16.63;7.95;;;;;;;10.88;83.87;102103.16;4987889;28;20371;-74
2021/06/14 01:22:12;;;;;;;14.15;7.95;;;;;;;10.84;83.96;102097.25;5004130;28;20123;-74
2021/06/14 01:25:15;;;;;;;17.40;8.02;;;;;;;10.76;83.75;102091.69;4987606;28;20057;-74
2021/06/14 01:27:45;;;;;;;18.30;7.72;;;;;;;10.75;84.42;102092.69;4987796;28;20066;-73
2021/06/14 01:30:20;;;;;;;;;;;;;;;10.73;84.49;102087.47;5006848;28;20045;-73
2021/06/14 01:32:48;;;;;;;23.75;9.27;;;;;;;10.84;86.06;102080.34;4991017;28;20624;-73
2021/06/14 01:35:20;;;;;;;15.52;7.65;;;;;;;10.73;84.64;102083.97;4990957;28;20034;-73
2021/06/14 01:37:53;;;;;;;14.55;7.70;;;;;;;10.68;84.87;102080.84;4990776;28;20129;-73
2021/06/14 01:40:20;;;;;;;22.75;8.63;;;;;;;10.66;85.61;102080.13;4990938;28;20064;-73
2021/06/14 01:42:48;;;;;;;16.33;9.10;;;;;;;10.63;85.67;102073.22;4990833;28;20099;-73
2021/06/14 01:45:16;;;;;;;19.15;9.23;;;;;;;10.65;85.91;102067.72;4990786;28;20026;-73
2021/06/14 01:47:43;;;;;;;13.57;9.20;;;;;;;10.62;85.44;102068.00;4991312;28;20030;-73
2021/06/14 01:50:09;;;;;;;14.10;8.82;;;;;;;10.60;86.03;102061.94;4991692;28;20044;-73
2021/06/14 01:52:36;;;;;;;;;;;;;;;10.61;86.00;102066.31;4991055;28;20038;-73
2021/06/14 01:55:01;;;;;;;;;;;;;;;10.59;85.76;102065.59;4991136;28;20300;-73
2021/06/14 01:57:39;;;;;;;19.13;9.15;;;;;;;10.53;85.37;102066.94;4990359;28;19926;-73
2021/06/14 02:00:17;;;;;;;17.42;8.60;;;;;;;10.48;85.13;102067.31;5007082;28;20034;-73
2021/06/14 02:03:11;;;;;;;25.77;9.48;;;;;;;10.50;85.63;102057.38;4990493;28;20039;-73
2021/06/14 02:05:46;;;;;;;25.13;9.20;;;;;;;10.46;85.62;102060.44;4990558;28;20413;-73
2021/06/14 02:08:14;;;;;;;21.90;9.88;;;;;;;10.44;86.02;102052.56;4990013;28;20550;-73
2021/06/14 02:10:40;;;;;;;18.25;9.10;;;;;;;10.45;85.64;102048.06;4991368;28;20172;-73
2021/06/14 02:13:09;;;;;;;14.80;8.10;;;;;;;10.42;85.86;102050.97;4990319;28;20417;-73
2021/06/14 02:15:35;;;;;;;20.08;8.52;;;;;;;10.39;85.80;102038.72;4991300;28;20038;-64
2021/06/14 02:18:05;;;;;;;16.08;9.32;;;;;;;10.38;85.86;102045.06;5006255;28;20031;-63
2021/06/14 02:20:31;;;;;;;20.27;9.98;;;;;;;10.34;85.72;102040.94;4990230;28;20049;-63
2021/06/14 02:22:57;;;;;;;14.70;9.05;;;;;;;10.27;85.33;102045.09;4989903;28;20046;-63
2021/06/14 02:25:23;;;;;;;14.95;8.90;;;;;;;10.19;85.37;102047.56;5006503;28;20076;-63
2021/06/14 02:27:53;;;;;;;22.67;9.13;;;;;;;10.19;86.08;102042.22;4989880;28;20053;-63
2021/06/14 02:30:23;;;;;;;19.27;10.10;;;;;;;10.23;86.72;102040.97;4990148;28;20043;-64
2021/06/14 02:32:51;;;;;;;16.77;9.85;;;;;;;10.27;86.41;102037.06;4974157;28;20034;-64
2021/06/14 02:35:20;;;;;;;14.93;9.18;;;;;;;10.23;85.63;102044.50;4989905;28;20042;-63
2021/06/14 02:37:48;;;;;;;17.80;9.55;;;;;;;10.20;85.73;102043.91;4989649;28;20042;-64
2021/06/14 02:40:16;;;;;;;18.30;9.25;;;;;;;10.18;85.31;102040.50;4989901;28;20168;-63
2021/06/14 02:42:44;;;;;;;21.63;10.73;;;;;;;10.14;85.24;102040.78;4990701;28;20135;-63
2021/06/14 02:45:11;;;;;;;19.85;11.82;;;;;;;10.15;86.98;102044.28;4989864;28;20034;-64
2021/06/14 02:47:38;;;;;;;21.20;10.55;;;;;;;10.23;87.71;102040.97;4989517;28;20038;-64
2021/06/14 02:50:06;;;;;;;29.00;13.50;;;;;;;10.23;88.58;102043.63;4989715;28;20042;-64
2021/06/14 02:52:33;;;;;;;24.35;13.80;;;;;;;10.23;88.93;102033.84;4973564;28;20034;-64
2021/06/14 02:55:06;;;;;;;25.92;13.77;;;;;;;10.21;88.73;102032.25;4989699;28;20038;-64
2021/06/14 02:57:33;;;;;;;19.48;11.13;;;;;;;10.20;88.50;102035.91;4989391;28;20038;-64
2021/06/14 03:00:00;;;;;;;25.73;11.65;;;;;;;10.13;87.99;102023.06;4989601;28;20030;-64
2021/06/14 03:02:32;;;;;;;22.08;12.10;;;;;;;10.09;87.43;102021.66;4990434;28;20049;-64
2021/06/14 03:04:58;;;;;;;18.98;10.27;;;;;;;10.06;87.05;102021.03;4990365;28;20463;-64
2021/06/14 03:07:27;;;;;;;19.90;11.50;;;;;;;10.01;86.88;102018.75;4989249;28;20069;-64
2021/06/14 03:09:53;;;;;;;27.52;12.90;;;;;;;10.11;87.72;102032.16;4989465;28;20030;-64
2021/06/14 03:12:21;;;;;;;20.75;12.55;;;;;;;10.20;87.84;102031.41;4973461;28;20476;-64
2021/06/14 03:14:49;;;;;;;20.10;13.05;;;;;;;10.24;87.77;102034.69;4973550;28;20481;-64
2021/06/14 03:17:15;;;;;;;29.47;14.17;;;;;;;10.32;88.09;102029.56;4989227;28;20125;-64
2021/06/14 03:19:47;;;;;;;30.45;15.20;;;;;;;10.35;87.82;102023.97;4990272;28;20034;-64
2021/06/14 03:22:15;;;;;;;28.08;14.07;;;;;;;10.39;87.75;102017.38;4990251;28;20035;-64
2021/06/14 03:24:41;;;;;;;26.88;14.55;;;;;;;10.35;87.40;102013.31;4989225;28;20099;-64
2021/06/14 03:27:08;;;;;;;29.08;16.35;;;;;;;10.31;87.73;102003.84;4989933;28;20497;-64
2021/06/14 03:29:34;;;;;;;35.88;16.85;;;;;;;10.29;88.70;102005.78;4989981;28;20053;-64
2021/06/14 03:32:02;;;;;;;32.83;15.18;;;;;;;10.35;88.42;102010.63;4989241;28;20115;-64
2021/06/14 03:34:28;;;;;;;35.65;15.80;;;;;;;10.39;88.15;102000.53;4989955;28;20046;-64
2021/06/14 03:36:55;;;;;;;;;;;;;;;10.49;88.24;102006.78;4990206;28;20050;-64
2021/06/14 03:39:21;;;;;;;32.65;15.77;;;;;;;10.51;87.90;102010.16;4989036;28;20386;-64
2021/06/14 03:41:48;;;;;;;28.40;15.35;;;;;;;10.53;88.36;102003.69;4989895;28;20042;-64
2021/06/14 03:44:15;;;;;;;37.28;18.73;;;;;;;10.60;88.02;102003.19;4988906;28;20038;-64
2021/06/14 03:46:41;;;;;;;36.55;17.45;;;;;;;10.63;87.85;101994.91;4989641;28;20125;-64
2021/06/14 03:49:06;;;;;;;29.85;15.70;;;;;;;10.64;87.75;101989.44;4989077;28;20109;-64
2021/06/14 03:51:32;;;;;;;35.50;16.30;;;;;;;10.64;87.58;101988.59;4988211;28;20376;-64
2021/06/14 03:53:58;;;;;;;37.97;15.93;;;;;;;10.70;87.60;101990.72;4972747;28;20125;-64
2021/06/14 03:56:25;;;;;;;;;;;;;;;10.83;87.53;101993.19;4988909;28;20089;-64
2021/06/14 03:58:50;;;;;;;29.10;15.55;;;;;;;10.84;87.75;101990.38;4988617;28;20042;-64
2021/06/14 04:01:16;;;;;;;29.70;15.97;;;;;;;10.96;87.82;101999.16;4989576;28;20065;-64
2021/06/14 04:03:43;;;;;;;32.90;14.63;;;;;;;11.08;87.39;101997.22;4989694;28;20058;-64
2021/06/14 04:06:08;;;;;;;31.50;15.82;;;;;;;11.18;87.20;102001.59;4989157;28;20053;-64
2021/06/14 04:08:37;;;;;;;25.92;12.98;;;;;;;11.33;86.41;102011.91;4988666;28;20042;-64
2021/06/14 04:11:03;;;;;;;22.43;12.90;;;;;;;11.44;86.18;102013.66;4988519;28;20099;-64
2021/06/14 04:13:29;;;;;;;26.33;14.68;;;;;;;11.55;85.88;102005.50;4988312;28;20042;-64
2021/06/14 04:15:54;;;;;;;30.20;14.77;;;;;;;11.60;85.12;102005.94;4986316;28;20129;-64
2021/06/14 04:18:20;;;;;;;27.23;13.30;;;;;;;11.77;84.91;102013.25;4989039;28;20042;-64
2021/06/14 04:20:45;;;;;;;29.07;12.80;;;;;;;11.92;84.78;102012.91;4994604;28;20442;-64
2021/06/14 04:23:11;;;;;;;21.50;12.77;;;;;;;12.00;84.55;102015.72;5008877;28;20040;-64
2021/06/14 04:25:36;;;;;;;25.23;14.00;;;;;;;12.09;84.24;102016.72;5008839;28;20038;-64
2021/06/14 04:28:06;;;;;;;22.70;11.90;;;;;;;12.25;83.79;102020.50;5008545;28;20125;-64
2021/06/14 04:30:31;;;;;;;23.70;12.95;;;;;;;12.38;83.37;102022.84;5008759;28;20033;-64
2021/06/14 04:32:57;;;;;;;30.53;12.20;;;;;;;12.46;82.96;102014.13;5007777;28;20486;-64
2021/06/14 04:35:22;;;;;;;27.17;12.57;;;;;;;12.51;82.78;102024.41;5008637;28;20424;-64
2021/06/14 04:37:47;;;;;;;25.83;12.23;;;;;;;12.69;82.84;102022.69;5007441;28;20103;-64
2021/06/14 04:40:13;;;;;;;20.77;12.03;;;;;;;12.68;81.75;102027.16;5007608;28;20061;-64
2021/06/14 04:42:38;;;;;;;23.43;11.10;;;;;;;12.84;80.96;102020.38;4991227;28;20038;-64
2021/06/14 04:45:04;;;;;;;27.00;12.17;;;;;;;12.88;80.98;102022.63;5007655;28;20044;-64
2021/06/14 04:47:29;;;;;;;23.55;10.98;;;;;;;13.08;80.53;102023.38;5007262;28;20106;-64
2021/06/14 04:49:57;;;;;;;22.70;11.20;;;;;;;13.15;80.13;102020.94;5008547;28;20483;-64
2021/06/14 04:52:23;;;;;;;22.95;10.45;;;;;;;13.33;80.00;102022.88;5007428;28;20045;-64
2021/06/14 04:54:48;;;;;;;17.83;9.68;;;;;;;13.56;79.31;102026.84;4990879;28;20038;-64
2021/06/14 04:57:13;;;;;;;22.27;11.10;;;;;;;13.65;78.68;102023.25;5006751;28;20054;-64
2021/06/14 04:59:39;;;;;;;19.53;9.97;;;;;;;13.72;78.21;102026.16;5008136;28;20048;-64
2021/06/14 05:02:04;;;;;;;20.27;10.40;;;;;;;13.81;77.22;102027.06;5007113;28;20080;-64
2021/06/14 05:04:31;;;;;;;20.57;10.20;;;;;;;13.64;76.60;102023.38;5009876;28;20030;-64
2021/06/14 05:06:57;;;;;;;16.10;8.70;;;;;;;13.90;76.25;102024.31;5010460;28;20045;-64
2021/06/14 05:09:22;;;;;;;18.13;8.43;;;;;;;14.01;76.14;102017.88;5011715;28;20434;-64
2021/06/14 05:11:47;;;;;;;18.80;7.60;;;;;;;14.19;75.27;102019.69;5011866;28;20033;-64
2021/06/14 05:14:15;;;;;;;12.30;7.87;;;;;;;14.18;74.11;102005.44;5010915;28;20030;-64
2021/06/14 05:16:41;;;;;;;19.25;7.90;;;;;;;14.33;74.72;102020.00;5011418;28;20116;-64
2021/06/14 05:19:06;;;;;;;19.58;8.05;;;;;;;14.61;73.01;102011.84;4994423;28;20075;-65
2021/06/14 05:21:32;;;;;;;15.10;7.53;;;;;;;14.74;72.40;102014.91;5011516;28;20057;-64
2021/06/14 05:23:57;;;;;;;14.07;8.13;;;;;;;14.82;71.95;102019.53;5010625;28;20054;-64
2021/06/14 05:26:22;;;;;;;13.53;7.83;;;;;;;14.96;70.08;102012.69;5011309;28;20090;-65
2021/06/14 05:28:48;;;;;;;17.07;7.37;;;;;;;15.31;70.54;102009.00;5011561;28;20375;-65
2021/06/14 05:31:13;;;;;;;17.57;8.40;;;;;;;15.50;69.15;102007.88;5011620;28;20226;-65
2021/06/14 05:33:38;;;;;;;19.97;8.53;;;;;;;15.61;67.70;102010.22;5010283;28;20029;-65
2021/06/14 05:36:04;;;;;;;15.33;7.07;;;;;;;15.97;66.32;102009.16;5011194;28;20069;-65
2021/06/14 05:38:29;;;;;;;19.53;7.57;;;;;;;16.39;64.63;102000.88;5011335;28;20042;-65
2021/06/14 05:40:55;;;;;;;11.03;8.23;;;;;;;17.03;63.71;102002.78;5011181;28;20288;-65
2021/06/14 05:43:20;;;;;;;12.00;7.37;;;;;;;17.60;60.46;101997.06;5011218;28;20057;-65
2021/06/14 05:45:46;;;;;;;16.27;6.77;;;;;;;17.68;60.11;101997.03;4993952;28;20401;-65
2021/06/14 05:48:11;;;;;;;16.07;7.13;;;;;;;17.97;58.45;101992.81;5011035;28;20632;-65
2021/06/14 05:50:36;;;;;;;9.20;5.60;;;;;;;17.97;58.87;101986.56;5010184;28;20091;-65
2021/06/14 05:53:02;;;;;;;17.93;5.53;;;;;;;18.25;58.23;101989.53;5011304;28;20050;-74
2021/06/14 05:55:27;;;;;;;13.50;5.37;;;;;;;19.07;55.82;101984.09;5011043;28;20038;-75
2021/06/14 05:57:53;;;;;;;19.33;7.07;;;;;;;18.68;56.10;101985.22;5009936;28;20398;-75
2021/06/14 06:00:19;;;;;;;15.40;6.03;;;;;;;18.67;56.26;101982.69;4993929;28;20030;-74
2021/06/14 06:02:44;;;;;;;8.98;5.22;;;;;;;18.75;55.86;101990.69;5010101;28;20094;-74
2021/06/14 06:05:10;;;;;;;10.00;5.67;;;;;;;19.08;55.53;101987.63;5009583;28;20416;-75
2021/06/14 06:07:36;;;;;;;12.90;6.32;;;;;;;18.79;55.19;101988.50;5009333;28;20038;-74
2021/06/14 06:10:04;;;;;;;17.33;6.63;;;;;;;18.30;57.97;101970.91;5009704;28;20081;-74
2021/06/14 06:12:30;;;;;;;13.38;5.78;;;;;;;19.04;55.74;101973.66;5009598;28;20137;-74
2021/06/14 06:14:55;;;;;;;15.23;5.00;;;;;;;19.84;53.74;101969.13;5009113;28;20100;-75
2021/06/14 06:17:20;;;;;;;11.13;6.13;;;;;;;19.52;54.31;101965.03;5010540;28;20068;-74
2021/06/14 06:19:46;;;;;;;10.53;4.23;;;;;;;20.09;53.56;101964.16;5010763;28;20121;-75
2021/06/14 06:22:13;;;;;;;9.73;4.87;;;;;;;20.94;49.95;101959.50;4993483;28;20044;-75
2021/06/14 06:24:39;;;;;;;13.50;5.03;;;;;;;20.58;50.22;101963.28;5010636;28;20117;-75
2021/06/14 06:27:04;;;;;;;10.53;5.13;;;;;;;20.09;53.32;101953.31;5009436;28;20132;-75
2021/06/14 06:29:30;;;;;;;10.38;5.18;;;;;;;20.57;50.75;101948.03;5010613;28;20045;-75
2021/06/14 06:31:55;;;;;;;13.03;4.60;;;;;;;20.09;51.84;101945.19;5010257;28;20034;-75
2021/06/14 06:34:21;;;;;;;9.13;4.33;;;;;;;20.32;52.33;101949.50;4993205;28;20416;-74
2021/06/14 06:36:48;;;;;;;11.40;3.83;;;;;;;21.03;50.84;101938.47;5009147;28;20785;-75
2021/06/14 06:39:13;;;;;;;24.75;4.20;;;;;;;21.47;49.00;101940.72;5010488;28;20049;-75
2021/06/14 06:41:38;;;;;;;6.67;3.23;;;;;;;21.78;49.69;101950.16;5009225;28;20042;-75
2021/06/14 06:44:04;;;;;;;13.27;4.87;;;;;;;20.18;51.82;101941.28;5010442;28;20050;-75
2021/06/14 06:46:29;;;;;;;11.60;4.60;;;;;;;20.21;52.12;101940.88;4992733;28;20034;-75
2021/06/14 06:48:54;;;;;;;12.03;3.67;;;;;;;20.43;50.51;101944.38;5009459;28;20466;-75
2021/06/14 06:51:20;;;;;;;9.17;4.03;;;;;;;20.32;50.56;101927.81;4992977;28;20121;-75
2021/06/14 06:53:45;;;;;;;11.40;3.90;;;;;;;20.43;50.71;101929.97;5009297;28;20178;-75
2021/06/14 06:56:10;;;;;;;8.10;4.10;;;;;;;20.34;50.79;101920.31;5009945;28;20371;-74
2021/06/14 06:58:36;;;;;;;8.93;4.67;;;;;;;20.23;52.37;101930.69;5010239;28;20470;-74
2021/06/14 07:01:01;;;;;;;9.47;5.30;;;;;;;19.95;51.19;101921.72;5010183;28;20458;-75
2021/06/14 07:03:27;;;;;;;12.10;5.13;;;;;;;18.81;54.88;101916.94;5010212;28;20126;-75
2021/06/14 07:05:53;;;;;;;9.73;4.57;;;;;;;19.94;52.16;101906.47;5009908;28;20296;-75
2021/06/14 07:08:18;;;;;;;8.57;3.97;;;;;;;20.18;52.07;101911.47;5009986;28;20140;-75
2021/06/14 07:10:44;;;;;;;12.33;4.33;;;;;;;19.68;52.87;101910.63;5009214;28;20037;-75
2021/06/14 07:13:10;;;;;;;9.00;4.27;;;;;;;19.58;54.25;101899.25;5010072;28;20506;-74
2021/06/14 07:15:36;;;;;;;6.43;3.85;;;;;;;19.86;52.54;101884.94;5010025;28;20030;-74
2021/06/14 07:18:02;;;;;;;12.35;3.83;;;;;;;20.53;50.75;101887.03;5008872;28;20600;-74
2021/06/14 07:20:30;;;;;;;19.27;5.00;;;;;;;19.28;52.93;101893.97;5008969;28;20124;-74
2021/06/14 07:22:56;;;;;;;9.73;4.15;;;;;;;19.19;53.57;101898.66;5009490;28;20035;-73
2021/06/14 07:25:22;;;;;;;7.75;3.40;;;;;;;19.60;52.71;101899.91;5009142;28;20048;-74
2021/06/14 07:27:48;;;;;;;10.30;3.73;;;;;;;19.47;52.79;101897.06;5009260;28;20045;-74
2021/06/14 07:30:17;;;;;;;8.63;3.50;;;;;;;19.94;52.73;101882.91;5008723;28;20091;-74
2021/06/14 07:32:43;;;;;;;12.20;4.68;;;;;;;19.92;51.88;101884.97;5008695;28;20546;-74
2021/06/14 07:35:09;;;;;;;8.95;4.13;;;;;;;19.87;51.74;101886.63;5009622;28;20073;-74
2021/06/14 07:37:35;;;;;;;5.82;3.78;;;;;;;19.84;53.06;101877.00;5008376;28;20045;-74
2021/06/14 07:40:00;;;;;;;4.60;3.42;;;;;;;19.67;52.44;101881.84;5008807;28;20041;-74
2021/06/14 07:42:26;;;;;;;7.40;3.73;;;;;;;19.92;52.28;101874.13;5009421;28;20037;-75
2021/06/14 07:44:51;;;;;;;9.03;3.80;;;;;;;20.44;50.90;101866.56;5008571;28;20047;-75
2021/06/14 07:47:17;;;;;;;9.17;3.50;;;;;;;20.10;51.69;101856.56;5008299;28;20494;-75
2021/06/14 07:49:42;;;;;;;7.07;3.80;;;;;;;19.47;52.97;101859.16;4992083;28;20038;-75
2021/06/14 07:52:08;;;;;;;9.18;3.88;;;;;;;20.09;52.49;101853.00;5009381;28;20065;-75
2021/06/14 07:54:34;;;;;;;9.85;4.28;;;;;;;19.44;53.99;101849.56;5008376;28;20045;-74
2021/06/14 07:56:59;;;;;;;11.57;3.50;;;;;;;19.59;53.51;101841.34;5008092;28;20038;-75
2021/06/14 07:59:25;;;;;;;4.97;2.80;;;;;;;20.31;51.51;101836.66;5009150;28;20284;-75
2021/06/14 08:01:50;;;;;;;9.25;4.05;;;;;;;20.56;50.12;101831.59;5009243;28;20311;-74
2021/06/14 08:04:16;;;;;;;15.10;3.50;;;;;;;20.20;52.00;101832.63;5009188;28;20121;-75
2021/06/14 08:06:41;;;;;;;8.03;3.90;;;;;;;20.23;50.18;101832.25;5007870;28;20054;-74
2021/06/14 08:09:09;;;;;;;6.30;3.47;;;;;;;20.37;51.08;101817.72;5009163;28;20052;-75
2021/06/14 08:11:36;;;;;;;10.32;3.42;;;;;;;20.33;51.31;101811.00;5009202;28;20041;-74
2021/06/14 08:14:03;;;;;;;8.88;3.80;;;;;;;20.41;50.62;101813.53;5009075;28;20045;-66
2021/06/14 08:16:29;;;;;;;8.20;3.28;;;;;;;20.54;51.38;101812.75;5008828;28;20037;-66
2021/06/14 08:26:41;;;;;;;7.68;3.50;;;;;;;20.50;49.81;101799.81;5007603;28;20038;-66
2021/06/14 08:29:06;;;;;;;8.60;3.92;;;;;;;20.69;50.51;101806.38;5007827;28;20041;-66
2021/06/14 08:31:33;;;;;;;6.23;3.50;;;;;;;20.51;50.60;101802.34;4991510;28;20025;-66
2021/06/14 08:34:00;;;;;;;7.78;3.75;;;;;;;21.18;49.40;101788.94;5007902;28;20451;-66
2021/06/14 08:36:25;;;;;;;;;;;;;;;21.25;48.46;101792.50;5008776;28;20029;-66
2021/06/14 08:38:51;;;;;;;6.18;3.35;;;;;;;21.08;50.40;101784.75;5008590;28;20670;-66
2021/06/14 08:41:17;;;;;;;7.53;3.60;;;;;;;21.01;48.95;101786.63;5007704;28;20140;-66
2021/06/14 08:43:44;;;;;;;10.15;3.40;;;;;;;20.84;49.79;101769.06;5007719;28;20057;-66
2021/06/14 08:46:10;;;;;;;9.23;3.95;;;;;;;20.72;49.60;101773.41;5008110;28;20026;-66
2021/06/14 08:48:36;;;;;;;9.73;5.00;;;;;;;21.23;48.94;101775.56;5008699;28;20440;-66
2021/06/14 08:51:02;;;;;;;12.40;4.90;;;;;;;21.23;47.42;101772.84;5007597;28;20285;-66
2021/06/14 08:53:27;;;;;;;6.50;4.07;;;;;;;21.12;48.26;101770.75;4991436;28;20368;-66
2021/06/14 08:55:53;;;;;;;9.20;4.33;;;;;;;21.08;47.86;101767.63;5008271;28;20186;-66
2021/06/14 08:58:18;;;;;;;11.93;4.40;;;;;;;21.49;46.78;101744.88;5007400;28;20042;-66
2021/06/14 09:00:44;;;;;;;15.80;4.73;;;;;;;21.82;47.88;101753.00;5008261;28;20038;-66
2021/06/14 09:03:09;;;;;;;7.75;4.15;;;;;;;22.23;45.16;101746.38;5006971;28;20046;-66
2021/06/14 09:05:35;;;;;;;11.17;4.20;;;;;;;22.16;45.89;101747.44;5008135;28;20075;-66
2021/06/14 09:08:05;;;;;;;9.77;4.60;;;;;;;22.38;44.82;101746.09;5008087;28;20034;-66
2021/06/14 09:10:37;;;;;;;6.28;4.10;;;;;;;22.84;44.18;101744.16;5008247;28;20065;-66
2021/06/14 09:13:26;;;;;;;8.38;4.45;;;;;;;22.43;44.60;101735.41;5008221;28;20087;-66
2021/06/14 09:15:56;;;;;;;8.90;3.80;;;;;;;22.97;43.60;101741.38;5007020;28;20118;-66
2021/06/14 09:18:26;;;;;;;10.27;4.07;;;;;;;23.10;42.34;101741.28;4991017;28;20126;-66
2021/06/14 09:21:15;;;;;;;10.48;4.97;;;;;;;22.92;43.11;101738.44;5008029;28;20447;-66
2021/06/14 09:23:48;;;;;;;7.72;5.88;;;;;;;22.93;42.98;101737.41;5008042;28;20527;-66
2021/06/14 09:26:21;;;;;;;9.23;4.88;;;;;;;22.18;44.52;101738.00;5007786;28;20041;-66
2021/06/14 09:28:54;;;;;;;10.25;4.68;;;;;;;22.81;43.73;101737.28;5007065;28;20045;-66
2021/06/14 09:31:20;;;;;;;9.65;4.80;;;;;;;23.18;43.07;101729.28;4990921;28;20041;-66
2021/06/14 09:33:46;;;;;;;8.20;3.95;;;;;;;22.96;42.76;101734.22;5007186;28;20030;-66
2021/06/14 09:36:13;;;;;;;13.68;4.68;;;;;;;23.16;42.79;101743.13;4990330;28;20405;-66
2021/06/14 09:38:39;;;;;;;11.30;4.80;;;;;;;23.47;41.73;101735.09;5007937;28;20033;-66
2021/06/14 09:41:15;;;;;;;9.93;4.75;;;;;;;23.38;41.64;101742.72;5007946;28;20049;-67
2021/06/14 09:43:44;;;;;;;9.52;3.83;;;;;;;23.53;40.40;101747.81;4990510;28;20034;-66
2021/06/14 09:46:22;;;;;;;10.57;4.43;;;;;;;23.25;41.09;101737.38;5007590;28;20129;-66
2021/06/14 09:48:50;;;;;;;9.93;4.00;;;;;;;23.52;41.93;101727.91;5008041;28;20617;-66
2021/06/14 09:51:16;;;;;;;17.88;5.28;;;;;;;23.51;40.03;101731.69;5010254;28;20152;-66
2021/06/14 09:53:45;;;;;;;7.60;3.78;;;;;;;23.87;39.60;101724.63;5010228;28;20038;-66
2021/06/14 09:56:13;;;;;;;7.22;3.88;;;;;;;24.23;39.37;101721.06;5010834;28;20052;-66
2021/06/14 09:58:42;;;;;;;6.18;4.32;;;;;;;24.22;38.60;101710.34;5009946;28;20479;-66
2021/06/14 10:01:09;;;;;;;10.45;3.65;;;;;;;24.24;38.76;101710.97;5010771;28;20049;-66
2021/06/14 10:03:45;;;;;;;9.05;3.67;;;;;;;24.37;39.39;101705.34;5010974;28;20098;-66
2021/06/14 10:06:11;;;;;;;12.68;4.53;;;;;;;24.77;38.11;101706.66;5009803;28;20037;-66
2021/06/14 10:08:37;;;;;;;22.48;4.78;;;;;;;24.76;38.47;101699.53;5010837;28;20524;-67
2021/06/14 10:11:07;;;;;;;11.70;5.22;;;;;;;24.89;39.13;101701.22;5009953;28;20038;-67
2021/06/14 10:13:33;;;;;;;5.72;3.10;;;;;;;24.87;38.31;101700.63;5009638;28;20030;-66
2021/06/14 10:16:04;;;;;;;;;;;;;;;24.89;38.00;101698.47;5010118;28;20042;-67
2021/06/14 10:18:34;;;;;;;7.15;3.78;;;;;;;24.38;38.99;101704.25;5009827;28;20342;-66
2021/06/14 10:20:59;;;;;;;7.35;4.10;;;;;;;24.61;37.91;101705.44;5009828;28;20046;-67
2021/06/14 10:23:24;;;;;;;8.43;3.90;;;;;;;24.46;39.33;101689.44;5009624;28;20038;-66
2021/06/14 10:25:50;;;;;;;8.83;3.83;;;;;;;25.63;36.93;101699.72;5010479;28;20091;-67
2021/06/14 10:28:15;;;;;;;9.97;4.33;;;;;;;25.69;37.03;101701.50;5010489;28;20105;-67
2021/06/14 10:30:41;;;;;;;8.05;4.18;;;;;;;25.36;37.10;101702.13;5009664;28;20121;-67
2021/06/14 10:33:07;;;;;;;7.60;3.78;;;;;;;24.62;38.00;101701.63;5010654;28;20037;-67
2021/06/14 10:35:32;;;;;;;8.10;3.93;;;;;;;25.11;37.58;101698.75;5010394;28;20412;-67
2021/06/14 10:38:02;;;;;;;8.45;3.42;;;;;;;25.01;38.32;101691.16;4992969;28;20037;-67
2021/06/14 10:40:28;;;;;;;10.15;3.60;;;;;;;25.34;36.41;101689.78;5009241;28;20140;-67
2021/06/14 10:42:54;;;;;;;6.00;3.30;;;;;;;26.26;35.40;101692.53;5009179;28;20117;-67
2021/06/14 10:45:24;;;;;;;8.07;3.88;;;;;;;26.10;35.65;101687.84;5010299;28;20082;-67
2021/06/14 10:47:50;;;;;;;8.20;3.13;;;;;;;27.10;37.69;101683.59;5009252;28;20386;-67
2021/06/14 10:50:20;;;;;;;;;;;;;;;27.62;34.48;101684.38;5010642;28;20038;-67
2021/06/14 10:52:47;;;;;;;7.15;3.28;;;;;;;28.10;33.24;101689.13;5009349;28;20414;-67
2021/06/14 10:55:18;;;;;;;4.70;2.67;;;;;;;27.65;33.39;101692.09;5010068;28;20098;-67
2021/06/14 10:57:44;;;;;;;8.20;3.10;;;;;;;27.67;33.61;101671.53;5010009;28;20088;-67
2021/06/14 11:00:19;;;;;;;7.22;2.95;;;;;;;28.11;32.70;101668.81;5009177;28;20102;-67
2021/06/14 11:02:52;;;;;;;6.50;3.30;;;;;;;27.92;33.60;101662.00;5009326;28;20042;-67
2021/06/14 11:05:28;;;;;;;6.40;3.60;;;;;;;28.21;34.09;101659.84;5009981;28;20029;-67
2021/06/14 11:07:53;;;;;;;6.55;2.75;;;;;;;29.07;32.68;101647.16;4992477;28;20034;-67
2021/06/14 11:10:25;;;;;;;7.67;3.30;;;;;;;28.26;31.25;101659.06;5010020;28;20049;-67
2021/06/14 11:12:50;;;;;;;5.45;2.80;;;;;;;27.73;33.01;101648.59;5010053;28;20030;-67
2021/06/14 11:15:16;;;;;;;5.70;2.70;;;;;;;28.65;32.75;101645.19;5008971;28;20548;-68
2021/06/14 11:17:42;;;;;;;4.32;3.35;;;;;;;29.34;32.18;101649.81;5009575;28;20593;-68
2021/06/14 11:20:10;;;;;;;4.43;3.00;;;;;;;29.18;30.97;101649.72;5008953;28;20528;-68
2021/06/14 11:22:44;;;;;;;5.30;3.20;;;;;;;28.67;32.82;101646.59;5008709;28;20057;-68
2021/06/14 11:25:25;;;;;;;4.40;2.80;;;;;;;28.58;32.13;101645.41;5008875;28;20040;-68
2021/06/14 11:27:51;;;;;;;6.07;3.03;;;;;;;28.67;31.39;101651.25;5009524;28;20042;-68